Time;durP1;ratioP1;P1;durP2;ratioP2;P2;SDS_P1;SDS_P2;PMS_P1;PMS_P2;Temp;Humidity;BMP_temperature;BMP_pressure;BME280_temperature;BME280_humidity;BME280_pressure;Samples;Min_cycle;Max_cycle;Signal;HPM_P1;HPM_P2
2023/10/10 05:26:14;;;;;;;6.50;3.15;;;;;;;9.23;100.00;100891.50;5368800;33;33907;-83
2023/10/10 05:29:19;;;;;;;5.62;3.40;;;;;;;9.34;100.00;100897.63;5379119;33;34892;-84
2023/10/10 05:32:23;;;;;;;6.10;3.08;;;;;;;9.38;100.00;100901.69;5357044;33;34042;-84
2023/10/10 05:35:27;;;;;;;7.85;3.22;;;;;;;9.36;100.00;100896.47;5355903;33;34945;-84
2023/10/10 05:38:31;;;;;;;8.95;4.15;;;;;;;9.31;100.00;100905.00;5381374;33;33871;-84
2023/10/10 05:41:40;;;;;;;7.10;4.00;;;;;;;9.38;100.00;100915.13;5369613;33;34795;-84
2023/10/10 05:44:44;;;;;;;5.10;3.08;;;;;;;9.38;100.00;100915.13;5356362;33;34008;-84
2023/10/10 05:47:47;;;;;;;5.87;3.70;;;;;;;9.29;100.00;100924.97;5368118;33;35100;-82
2023/10/10 05:50:51;;;;;;;5.95;3.37;;;;;;;9.30;100.00;100929.31;5379352;33;34773;-83
2023/10/10 05:53:54;;;;;;;6.05;3.62;;;;;;;9.30;100.00;100923.94;5376629;33;34137;-84
2023/10/10 05:56:57;;;;;;;5.15;3.28;;;;;;;9.35;100.00;100923.50;5396908;33;35314;-84
2023/10/10 06:00:00;;;;;;;7.62;3.55;;;;;;;9.42;100.00;100924.53;5418675;28;35230;-84
2023/10/10 06:03:07;;;;;;;9.93;3.55;;;;;;;9.49;100.00;100922.94;5355913;33;33837;-83
2023/10/10 06:06:15;;;;;;;4.28;3.30;;;;;;;9.61;100.00;100932.41;5378859;33;33960;-84
2023/10/10 06:09:18;;;;;;;20.95;3.97;;;;;;;9.69;100.00;100935.16;5348860;33;33790;-87
2023/10/10 06:12:23;;;;;;;5.50;3.50;;;;;;;9.68;100.00;100938.87;5362618;33;33772;-88
2023/10/10 06:15:28;;;;;;;7.62;3.30;;;;;;;9.68;100.00;100951.44;5362932;33;34872;-87
2023/10/10 06:18:32;;;;;;;5.37;3.60;;;;;;;9.78;100.00;100949.50;5364206;33;35700;-84
2023/10/10 06:21:35;;;;;;;7.37;3.87;;;;;;;9.70;100.00;100954.81;5363989;33;33890;-84
2023/10/10 06:24:39;;;;;;;5.75;3.17;;;;;;;9.69;100.00;100959.34;5351955;33;34926;-84
2023/10/10 06:27:45;;;;;;;6.97;3.87;;;;;;;9.82;100.00;100968.84;5366370;33;34212;-83
2023/10/10 06:30:52;;;;;;;6.68;3.58;;;;;;;9.81;100.00;100969.84;5374204;33;33467;-84
2023/10/10 06:33:57;;;;;;;6.37;3.72;;;;;;;9.72;100.00;100968.97;5387727;33;34309;-83
2023/10/10 06:37:07;;;;;;;6.82;3.72;;;;;;;9.79;100.00;100971.84;5361935;33;34304;-83
2023/10/10 06:40:11;;;;;;;6.32;3.75;;;;;;;9.86;100.00;100973.75;5377060;33;34214;-83
2023/10/10 06:43:15;;;;;;;8.90;4.03;;;;;;;9.95;100.00;100982.72;5388988;33;33781;-83
2023/10/10 06:46:18;;;;;;;11.88;4.57;;;;;;;9.96;100.00;100984.41;5367082;33;33940;-83
2023/10/10 06:49:22;;;;;;;6.75;4.00;;;;;;;10.12;100.00;100976.44;5382733;33;34393;-83
2023/10/10 06:52:27;;;;;;;6.43;4.32;;;;;;;10.13;100.00;100970.03;5357631;33;34779;-83
2023/10/10 06:55:36;;;;;;;6.85;4.12;;;;;;;10.30;100.00;100968.31;5370237;33;33822;-83
2023/10/10 07:02:56;;;;;;;8.27;3.83;;;;;;;10.43;100.00;100979.44;6254507;27;20145;-84
2023/10/10 07:06:03;;;;;;;6.72;4.05;;;;;;;10.55;100.00;100971.09;5398132;32;33621;-83
2023/10/10 07:09:27;;;;;;;8.32;4.00;;;;;;;10.62;100.00;100980.22;5397340;32;33582;-83
2023/10/10 07:12:31;;;;;;;6.90;3.78;;;;;;;10.47;100.00;100971.91;5399570;32;33852;-83
2023/10/10 07:15:34;;;;;;;7.43;4.30;;;;;;;10.56;100.00;100976.31;5396669;32;33862;-83
2023/10/10 07:18:40;;;;;;;12.52;5.90;;;;;;;10.48;100.00;100981.66;5411086;32;34557;-83
2023/10/10 07:21:47;;;;;;;10.18;4.22;;;;;;;10.62;100.00;100994.50;5401737;32;34933;-87
2023/10/10 07:25:06;;;;;;;5.72;4.00;;;;;;;10.58;100.00;100987.75;5401216;33;33963;-87
2023/10/10 07:28:14;;;;;;;8.57;4.57;;;;;;;10.64;100.00;100989.78;5371714;33;33341;-83
2023/10/10 07:31:18;;;;;;;7.47;4.47;;;;;;;10.65;100.00;100993.34;5374131;32;33595;-83
2023/10/10 07:34:34;;;;;;;9.30;4.90;;;;;;;10.58;100.00;100993.13;5363079;33;33552;-82
2023/10/10 07:37:38;;;;;;;8.45;4.30;;;;;;;10.55;100.00;100998.84;5390012;33;33991;-83
2023/10/10 07:40:42;;;;;;;13.50;5.22;;;;;;;10.50;100.00;101001.22;5403774;33;33959;-83
2023/10/10 07:43:49;;;;;;;9.52;5.07;;;;;;;10.47;100.00;100987.19;5379364;33;34028;-83
2023/10/10 07:50:18;;;;;;;11.60;4.18;;;;;;;10.62;100.00;100980.22;5389821;33;34624;-83
2023/10/10 07:53:29;;;;;;;10.57;5.18;;;;;;;10.66;100.00;100990.47;5373807;32;33500;-83
2023/10/10 07:56:32;;;;;;;11.55;4.50;;;;;;;10.75;100.00;100998.59;5396294;32;33507;-83
2023/10/10 07:59:36;;;;;;;9.98;4.28;;;;;;;10.74;100.00;100995.06;5384714;33;33859;-83
2023/10/10 08:02:40;;;;;;;9.43;4.60;;;;;;;10.83;100.00;100990.53;5384262;33;33391;-83
2023/10/10 08:05:43;;;;;;;11.32;5.65;;;;;;;10.87;100.00;100990.03;5358334;33;33814;-82
2023/10/10 08:08:49;;;;;;;9.02;5.12;;;;;;;11.05;100.00;101000.66;5349174;33;34662;-83
2023/10/10 08:11:55;;;;;;;11.43;5.15;;;;;;;10.93;100.00;100991.22;5378648;33;32550;-83
2023/10/10 08:15:13;;;;;;;10.13;4.85;;;;;;;10.91;100.00;100993.25;5376150;33;34012;-83
2023/10/10 08:21:50;;;;;;;10.50;5.15;;;;;;;11.02;100.00;100990.22;5367918;33;33937;-87
2023/10/10 08:24:53;;;;;;;11.73;5.35;;;;;;;10.91;100.00;101006.72;5369650;33;33792;-83
2023/10/10 08:27:58;;;;;;;8.52;4.93;;;;;;;11.15;100.00;101005.94;5378699;33;32494;-83
2023/10/10 08:31:02;;;;;;;8.55;4.57;;;;;;;11.28;100.00;101006.25;5384163;33;34329;-83
2023/10/10 08:34:08;;;;;;;12.70;5.68;;;;;;;11.30;100.00;101006.13;5362962;33;33506;-83
2023/10/10 08:37:15;;;;;;;11.60;5.37;;;;;;;11.48;100.00;101012.19;5386689;33;33623;-83
2023/10/10 08:40:20;;;;;;;12.30;6.03;;;;;;;11.55;100.00;101018.59;5372816;33;34692;-82
2023/10/10 08:43:28;;;;;;;13.95;5.57;;;;;;;11.71;100.00;101015.03;5388125;33;34617;-83
2023/10/10 08:46:40;;;;;;;11.07;5.62;;;;;;;11.63;100.00;101020.44;5387392;33;33486;-83
2023/10/10 08:49:47;;;;;;;10.13;5.40;;;;;;;11.49;100.00;101030.03;5369447;33;33616;-83
2023/10/10 08:52:51;;;;;;;9.95;4.97;;;;;;;11.55;100.00;101028.53;5373681;33;34728;-83
2023/10/10 08:55:57;;;;;;;10.68;5.57;;;;;;;11.56;100.00;101025.66;5380863;33;34732;-83
2023/10/10 08:59:01;;;;;;;9.45;5.43;;;;;;;11.55;100.00;101020.44;5355831;33;34842;-83
2023/10/10 09:02:16;;;;;;;10.40;5.47;;;;;;;11.53;100.00;101028.72;5358174;33;34023;-83
2023/10/10 09:05:19;;;;;;;11.73;5.60;;;;;;;11.68;100.00;101036.13;5372961;33;34345;-81
2023/10/10 09:08:29;;;;;;;16.48;5.97;;;;;;;11.58;100.00;101029.06;5370343;33;34702;-82
2023/10/10 09:11:33;;;;;;;12.13;5.72;;;;;;;11.55;100.00;101034.78;5374109;33;34578;-82
2023/10/10 09:14:51;;;;;;;11.07;5.50;;;;;;;11.48;100.00;101041.84;5367818;33;33543;-82
2023/10/10 09:18:16;;;;;;;15.85;6.10;;;;;;;11.60;100.00;101042.34;5387666;33;33934;-82
2023/10/10 09:21:19;;;;;;;11.07;5.72;;;;;;;11.77;100.00;101054.00;5370805;33;33534;-85
2023/10/10 09:24:31;;;;;;;14.98;5.20;;;;;;;11.80;100.00;101049.09;5353774;33;33903;-86
2023/10/10 09:27:39;;;;;;;14.60;5.95;;;;;;;11.69;100.00;101056.69;5377701;33;34696;-82
2023/10/10 09:30:59;;;;;;;14.98;5.50;;;;;;;11.67;100.00;101059.56;5352804;33;33930;-82
2023/10/10 09:34:05;;;;;;;12.27;6.20;;;;;;;11.74;100.00;101057.87;5364443;33;33820;-82
2023/10/10 09:37:14;;;;;;;10.98;6.15;;;;;;;11.69;100.00;101056.69;5340876;33;33490;-82
2023/10/10 09:40:18;;;;;;;11.07;5.47;;;;;;;11.91;100.00;101068.69;5385354;33;33570;-83
2023/10/10 09:43:25;;;;;;;12.23;5.78;;;;;;;12.13;100.00;101064.44;5367516;33;33529;-82
2023/10/10 09:46:58;;;;;;;11.38;5.30;;;;;;;12.16;100.00;101064.09;5352882;33;34512;-82
2023/10/10 09:50:29;;;;;;;8.43;5.12;;;;;;;12.19;100.00;101066.44;5372698;33;33658;-82
2023/10/10 09:53:26;;;;;;;8.90;5.40;;;;;;;11.92;100.00;101059.56;5367093;33;33643;-82
2023/10/10 09:56:32;;;;;;;10.77;5.03;;;;;;;12.06;100.00;101061.59;5376813;33;34136;-82
2023/10/10 09:59:37;;;;;;;13.95;5.57;;;;;;;12.15;100.00;101057.03;5377885;33;32344;-82
2023/10/10 10:02:49;;;;;;;10.80;5.32;;;;;;;12.29;100.00;101061.72;5353377;33;33789;-82
2023/10/10 10:06:19;;;;;;;12.30;5.95;;;;;;;12.58;100.00;101068.41;5385222;33;35103;-82
2023/10/10 10:09:32;;;;;;;8.73;4.78;;;;;;;12.67;100.00;101061.94;5378892;33;33882;-83
2023/10/10 10:12:43;;;;;;;12.73;5.75;;;;;;;12.76;100.00;101057.34;5379060;33;33980;-83
2023/10/10 10:16:15;;;;;;;7.85;5.15;;;;;;;12.81;100.00;101041.44;5384556;33;33982;-83
2023/10/10 10:19:22;;;;;;;8.52;5.07;;;;;;;12.90;100.00;101037.69;5382626;33;34046;-83
2023/10/10 10:22:29;;;;;;;9.57;5.35;;;;;;;12.92;100.00;101043.75;5377463;33;33629;-83
2023/10/10 10:25:33;;;;;;;8.38;4.87;;;;;;;13.21;100.00;101043.06;5377637;33;33840;-83
2023/10/10 10:28:43;;;;;;;8.10;5.00;;;;;;;13.36;100.00;101044.00;5377912;33;34678;-82
2023/10/10 10:31:51;;;;;;;8.85;5.50;;;;;;;13.47;100.00;101052.75;5383764;33;33513;-82
2023/10/10 10:34:58;;;;;;;7.95;4.90;;;;;;;13.31;100.00;101042.91;5367529;33;33502;-82
2023/10/10 10:38:06;;;;;;;8.85;4.87;;;;;;;13.13;100.00;101052.09;5379432;33;33937;-82
2023/10/10 10:41:17;;;;;;;9.18;5.30;;;;;;;12.92;100.00;101049.16;5381071;33;33263;-82
2023/10/10 10:44:54;;;;;;;13.90;5.35;;;;;;;12.93;100.00;101043.59;5362449;33;33733;-82
2023/10/10 10:48:01;;;;;;;10.10;5.55;;;;;;;12.65;100.00;101045.91;5376177;33;33957;-82
2023/10/10 10:51:22;;;;;;;11.20;5.07;;;;;;;12.84;100.00;101044.66;5363816;33;34595;-87
2023/10/10 10:54:37;;;;;;;13.10;5.65;;;;;;;12.64;100.00;101049.63;5379453;33;32498;-83
2023/10/10 10:57:41;;;;;;;10.88;5.05;;;;;;;12.93;100.00;101031.94;5384513;33;34475;-82
2023/10/10 11:04:05;;;;;;;11.95;6.12;;;;;;;13.23;100.00;101037.50;5379752;33;33990;-82
2023/10/10 11:07:15;;;;;;;11.77;5.18;;;;;;;13.41;100.00;101043.47;5364173;33;33885;-82
2023/10/10 11:10:35;;;;;;;11.90;5.43;;;;;;;13.57;100.00;101043.37;5375870;33;33443;-82
2023/10/10 11:13:38;;;;;;;11.93;5.90;;;;;;;13.55;100.00;101034.59;5361349;33;34947;-83
2023/10/10 11:16:45;;;;;;;12.73;6.82;;;;;;;13.63;100.00;101031.00;5363954;33;33928;-83
2023/10/10 11:19:53;;;;;;;11.77;6.10;;;;;;;13.76;100.00;101024.94;5376909;33;35978;-83
2023/10/10 11:23:16;;;;;;;14.87;6.25;;;;;;;13.44;100.00;101029.59;5364003;33;33902;-83
2023/10/10 11:26:19;;;;;;;10.15;5.68;;;;;;;13.41;100.00;101029.97;5352581;33;33438;-83
2023/10/10 11:29:27;;;;;;;11.27;6.12;;;;;;;13.42;100.00;101026.22;5366631;33;34092;-83
2023/10/10 11:32:46;;;;;;;11.73;5.95;;;;;;;13.43;100.00;101027.09;5366340;33;34382;-83
2023/10/10 11:36:01;;;;;;;10.82;6.32;;;;;;;13.34;100.00;101024.44;5366385;33;33803;-86
2023/10/10 11:39:24;;;;;;;12.68;6.35;;;;;;;13.56;100.00;101011.06;5372595;33;33929;-84
2023/10/10 11:42:28;;;;;;;12.98;5.80;;;;;;;13.62;100.00;101013.88;5367086;33;34261;-83
2023/10/10 11:45:50;;;;;;;12.68;6.07;;;;;;;14.04;100.00;101017.06;5384314;33;33946;-83
2023/10/10 11:48:55;;;;;;;12.35;5.47;;;;;;;14.21;100.00;101013.13;5385999;33;34143;-83
2023/10/10 11:51:59;;;;;;;12.82;6.07;;;;;;;14.10;100.00;101013.63;5382136;33;33964;-83
2023/10/10 11:55:07;;;;;;;13.30;8.38;;;;;;;14.36;100.00;101006.87;5388538;33;34574;-83
2023/10/10 11:58:16;;;;;;;13.07;6.37;;;;;;;14.71;100.00;100995.31;5372250;33;34591;-83
2023/10/10 12:01:47;;;;;;;18.50;7.30;;;;;;;15.08;99.89;100995.31;5378354;33;34671;-83
2023/10/10 12:04:44;;;;;;;25.52;7.30;;;;;;;15.08;100.00;100993.44;5367591;33;33774;-83
2023/10/10 12:07:48;;;;;;;13.00;7.22;;;;;;;14.78;100.00;100992.69;5367087;33;33842;-83
2023/10/10 12:10:52;;;;;;;15.57;7.20;;;;;;;14.89;100.00;100994.06;5354380;33;33544;-82
2023/10/10 12:13:56;;;;;;;14.90;7.55;;;;;;;14.77;100.00;100990.16;5355857;33;33578;-82
2023/10/10 12:17:05;;;;;;;14.10;6.68;;;;;;;14.77;100.00;100976.59;5366298;33;33799;-83
2023/10/10 12:20:08;;;;;;;14.27;7.13;;;;;;;14.87;100.00;100979.84;5379790;33;33773;-83
2023/10/10 12:23:12;;;;;;;12.48;6.53;;;;;;;15.02;100.00;100974.38;5357411;33;33823;-83
2023/10/10 12:26:15;;;;;;;14.80;7.75;;;;;;;14.97;100.00;100974.94;5366219;33;33854;-83
2023/10/10 12:29:18;;;;;;;15.25;7.45;;;;;;;15.21;100.00;100971.03;5376013;33;34092;-83
2023/10/10 12:32:22;;;;;;;14.40;6.97;;;;;;;15.55;99.51;100969.47;5347468;33;33801;-83
2023/10/10 12:35:26;;;;;;;15.50;6.95;;;;;;;15.39;100.00;100973.31;5364180;33;33683;-83
2023/10/10 12:38:32;;;;;;;14.35;7.15;;;;;;;15.27;100.00;100980.25;5382784;33;33554;-83
2023/10/10 12:41:45;;;;;;;16.92;8.18;;;;;;;14.99;100.00;100981.03;5369088;33;34248;-86
2023/10/10 12:44:49;;;;;;;14.73;7.68;;;;;;;15.09;100.00;100964.44;5371124;33;33972;-83
2023/10/10 12:47:53;;;;;;;17.73;8.63;;;;;;;15.17;100.00;100965.16;5369490;33;33625;-82
2023/10/10 12:51:00;;;;;;;16.40;7.57;;;;;;;15.26;100.00;100967.75;5365457;33;33660;-83
2023/10/10 12:54:05;;;;;;;13.80;6.60;;;;;;;15.23;100.00;100966.25;5374553;33;34770;-83
2023/10/10 12:57:13;;;;;;;15.50;7.35;;;;;;;15.42;100.00;100973.75;5366455;33;34990;-83
2023/10/10 13:00:33;;;;;;;15.20;7.18;;;;;;;15.39;100.00;100973.31;5378272;33;34017;-83
2023/10/10 13:03:36;;;;;;;20.92;9.18;;;;;;;15.39;100.00;100967.88;5366999;33;33760;-83
2023/10/10 13:06:39;;;;;;;16.37;7.78;;;;;;;15.28;100.00;100966.50;5368815;33;33345;-83
2023/10/10 13:09:44;;;;;;;18.37;8.27;;;;;;;15.44;100.00;100965.38;5364721;33;35105;-83
2023/10/10 13:12:51;;;;;;;18.52;8.02;;;;;;;15.29;100.00;100962.75;5378664;33;33998;-83
2023/10/10 13:16:07;;;;;;;18.60;8.13;;;;;;;15.56;100.00;100962.97;5376100;33;33816;-83
2023/10/10 13:19:11;;;;;;;14.50;7.68;;;;;;;15.80;100.00;100970.75;5361360;33;33651;-84
2023/10/10 13:22:20;;;;;;;17.58;9.60;;;;;;;15.90;100.00;100967.66;5375901;33;33733;-83
2023/10/10 13:25:24;;;;;;;19.65;7.70;;;;;;;16.15;100.00;100967.22;5364127;33;33959;-83
2023/10/10 13:28:27;;;;;;;18.58;8.68;;;;;;;16.27;100.00;100960.19;5376640;33;34853;-83
2023/10/10 13:31:30;;;;;;;16.00;7.97;;;;;;;16.74;98.30;100953.88;5378519;33;33628;-83
2023/10/10 13:34:37;;;;;;;18.52;8.90;;;;;;;16.78;97.79;100948.91;5352987;33;33905;-83
2023/10/10 13:37:43;;;;;;;17.52;7.70;;;;;;;16.90;98.26;100947.25;5377092;33;33865;-84
2023/10/10 13:40:48;;;;;;;16.12;8.20;;;;;;;16.92;96.14;100942.47;5364684;33;34962;-83
2023/10/10 13:43:52;;;;;;;20.20;8.77;;;;;;;16.82;98.68;100941.16;5364529;33;34698;-83
2023/10/10 13:46:55;;;;;;;16.87;8.70;;;;;;;16.58;100.00;100929.78;5378415;33;34598;-83
2023/10/10 13:50:28;;;;;;;21.73;8.98;;;;;;;16.23;100.00;100942.59;5352810;33;33629;-83
2023/10/10 13:53:22;;;;;;;22.33;9.20;;;;;;;16.14;100.00;100935.63;5379833;33;33983;-88
2023/10/10 13:56:30;;;;;;;17.55;8.32;;;;;;;16.14;100.00;100936.47;5355866;33;34301;-88
2023/10/10 13:59:34;;;;;;;18.20;9.63;;;;;;;16.16;100.00;100936.28;5368665;33;34456;-83
2023/10/10 14:02:39;;;;;;;17.83;8.35;;;;;;;16.21;100.00;100939.25;5378284;33;34997;-84
2023/10/10 14:06:00;;;;;;;16.58;8.95;;;;;;;16.43;100.00;100939.97;5364130;33;33544;-83
2023/10/10 14:09:03;;;;;;;20.73;10.63;;;;;;;16.68;100.00;100941.13;5368634;33;33803;-83
2023/10/10 14:12:08;;;;;;;20.95;9.35;;;;;;;16.69;100.00;100933.78;5368837;33;34089;-83
2023/10/10 14:15:11;;;;;;;18.25;9.38;;;;;;;16.39;100.00;100935.97;5387599;33;34022;-83
2023/10/10 14:18:14;;;;;;;21.23;9.20;;;;;;;16.08;100.00;100940.00;5377362;33;33569;-82
2023/10/10 14:21:25;;;;;;;20.35;9.82;;;;;;;16.06;100.00;100936.66;5362631;33;33436;-84
2023/10/10 14:24:30;;;;;;;23.70;9.63;;;;;;;15.93;100.00;100944.72;5376540;33;35208;-83
2023/10/10 14:27:33;;;;;;;18.87;9.52;;;;;;;15.82;100.00;100946.97;5363328;33;33561;-83
2023/10/10 14:30:37;;;;;;;19.60;8.70;;;;;;;15.73;100.00;100947.28;5352439;33;33580;-83
2023/10/10 14:33:40;;;;;;;23.08;10.70;;;;;;;15.58;100.00;100944.63;5380488;33;34629;-83
2023/10/10 14:36:44;;;;;;;19.40;8.27;;;;;;;15.67;100.00;100948.87;5363907;33;34058;-83
2023/10/10 14:39:51;;;;;;;16.60;9.18;;;;;;;15.69;100.00;100948.72;5364105;33;33887;-83
2023/10/10 14:42:54;;;;;;;19.48;7.65;;;;;;;15.61;100.00;100946.97;5352799;33;34624;-83
2023/10/10 14:45:57;;;;;;;18.02;8.32;;;;;;;15.54;100.00;100943.38;5366604;33;34731;-83
2023/10/10 14:49:16;;;;;;;23.17;8.52;;;;;;;15.46;100.00;100943.50;5371808;33;33824;-84
2023/10/10 14:52:20;;;;;;;22.30;9.23;;;;;;;15.58;100.00;100944.63;5377407;33;33965;-83
2023/10/10 14:55:27;;;;;;;26.35;10.02;;;;;;;15.59;100.00;100939.03;5334667;33;34404;-83
2023/10/10 14:58:31;;;;;;;16.48;9.95;;;;;;;15.60;100.00;100945.28;5351856;33;32344;-83
2023/10/10 15:01:34;;;;;;;18.30;9.55;;;;;;;15.53;100.00;100934.41;5377420;33;33994;-83
2023/10/10 15:04:38;;;;;;;20.45;10.25;;;;;;;15.36;100.00;100943.84;5366521;33;33985;-83
2023/10/10 15:07:43;;;;;;;16.45;8.60;;;;;;;15.23;100.00;100949.13;5354812;33;34090;-83
2023/10/10 15:10:47;;;;;;;18.10;8.70;;;;;;;15.05;100.00;100939.59;5367027;33;34051;-83
2023/10/10 15:13:54;;;;;;;18.98;8.98;;;;;;;14.87;100.00;100955.47;5379522;33;34884;-83
2023/10/10 15:16:58;;;;;;;21.05;9.35;;;;;;;14.76;100.00;100962.22;5354865;33;33455;-83
2023/10/10 15:20:01;;;;;;;17.85;9.20;;;;;;;14.65;100.00;100960.00;5361420;33;179205;-88
2023/10/10 15:23:04;;;;;;;18.85;8.10;;;;;;;14.50;100.00;100958.09;5350305;33;34429;-87
2023/10/10 15:26:17;;;;;;;17.92;8.98;;;;;;;14.27;100.00;100962.81;5362433;33;33919;-87
2023/10/10 15:29:21;;;;;;;18.87;8.60;;;;;;;14.13;100.00;100971.78;5366682;33;33896;-84
2023/10/10 15:32:25;;;;;;;20.42;8.85;;;;;;;14.02;100.00;100976.63;5362129;33;34019;-84
2023/10/10 15:35:28;;;;;;;18.23;8.02;;;;;;;13.94;100.00;100979.44;5360422;33;34592;-83
2023/10/10 15:38:32;;;;;;;18.02;8.38;;;;;;;13.87;100.00;100983.06;5361442;33;34000;-83
2023/10/10 15:41:36;;;;;;;16.87;8.25;;;;;;;13.75;100.00;100979.97;5348370;33;33709;-83
2023/10/10 15:44:41;;;;;;;18.02;8.50;;;;;;;13.67;100.00;100985.47;5360077;33;34179;-83
2023/10/10 15:47:45;;;;;;;14.82;8.38;;;;;;;13.53;100.00;100989.78;5348438;33;33343;-84
2023/10/10 15:50:57;;;;;;;17.35;8.20;;;;;;;13.37;100.00;100983.50;5370717;33;33603;-83
